Etter, Minnesota
Current Conditions -  °F | °C
As of 8:10 AM on Saturday 20 Dec 2014 (Local Time) from KRGK Reporting Station
Haze Haze  
Wind Chill: 30°   Ceiling: 1300
Heat Index: 30°   Visibility: 5mi
Dew Point: 25°   Wind: 0mph
Humidity: 80%   Direction: NA
Pressure: 30.18"   Gusts: NA
Location:  44.6055°N, 92.7163°W
Report Text: KRGK 201410Z AUTO 00000KT 5SM HZ OVC013 M01/M04 A3018 RMK AO2
Loading
Personal Weather Stations






























Interactive Weather Map New forecast layout! Learn more

10-Day Weather Forecast

Advertisements
Track Severe Weather on mobile